sensor_id;sensor_type;location;lat;lon;timestamp;pressure;altitude;pressure_sealevel;temperature;humidity
58739;BME280;44512;53.046;18.604;2023-06-24T00:05:34;101940.74;;;22.04;57.14
58739;BME280;44512;53.046;18.604;2023-06-24T00:16:03;101950.02;;;21.98;56.93
58739;BME280;44512;53.046;18.604;2023-06-24T00:26:31;101945.48;;;21.92;57.34
58739;BME280;44512;53.046;18.604;2023-06-24T00:37:00;101944.78;;;21.84;57.81
58739;BME280;44512;53.046;18.604;2023-06-24T00:47:28;101947.70;;;21.78;57.67
58739;BME280;44512;53.046;18.604;2023-06-24T00:57:57;101954.19;;;21.72;56.89
58739;BME280;44512;53.046;18.604;2023-06-24T01:08:25;101953.26;;;21.66;55.91
58739;BME280;44512;53.046;18.604;2023-06-24T01:18:57;101975.19;;;21.61;55.01
58739;BME280;44512;53.046;18.604;2023-06-24T01:39:57;101987.55;;;21.47;53.62
58739;BME280;44512;53.046;18.604;2023-06-24T01:50:21;101974.98;;;21.39;53.23
58739;BME280;44512;53.046;18.604;2023-06-24T02:00:47;101972.37;;;21.32;53.00
58739;BME280;44512;53.046;18.604;2023-06-24T02:11:15;101952.36;;;21.25;52.85
58739;BME280;44512;53.046;18.604;2023-06-24T02:21:44;101964.34;;;21.19;52.73
58739;BME280;44512;53.046;18.604;2023-06-24T02:32:11;101969.73;;;21.14;52.75
58739;BME280;44512;53.046;18.604;2023-06-24T02:42:40;101981.68;;;21.08;53.29
58739;BME280;44512;53.046;18.604;2023-06-24T02:53:08;101986.24;;;21.02;53.80
58739;BME280;44512;53.046;18.604;2023-06-24T03:03:37;101994.62;;;20.96;53.99
58739;BME280;44512;53.046;18.604;2023-06-24T03:14:05;102014.84;;;20.90;54.27
58739;BME280;44512;53.046;18.604;2023-06-24T03:24:33;102009.69;;;20.81;54.43
58739;BME280;44512;53.046;18.604;2023-06-24T03:35:03;102022.73;;;20.74;54.35
58739;BME280;44512;53.046;18.604;2023-06-24T03:45:30;102041.85;;;20.69;54.50
58739;BME280;44512;53.046;18.604;2023-06-24T03:55:58;102059.30;;;20.63;54.59
58739;BME280;44512;53.046;18.604;2023-06-24T04:06:27;102061.30;;;20.56;54.75
58739;BME280;44512;53.046;18.604;2023-06-24T04:16:55;102060.09;;;20.52;54.92
58739;BME280;44512;53.046;18.604;2023-06-24T04:27:23;102066.66;;;20.51;55.06
58739;BME280;44512;53.046;18.604;2023-06-24T04:37:52;102070.49;;;20.50;55.22
58739;BME280;44512;53.046;18.604;2023-06-24T04:48:22;102064.16;;;20.49;55.52
58739;BME280;44512;53.046;18.604;2023-06-24T04:58:48;102073.49;;;20.48;55.66
58739;BME280;44512;53.046;18.604;2023-06-24T05:09:18;102063.01;;;20.39;55.53
58739;BME280;44512;53.046;18.604;2023-06-24T05:19:45;102081.81;;;20.42;55.63
58739;BME280;44512;53.046;18.604;2023-06-24T05:30:13;102083.34;;;20.38;55.82
58739;BME280;44512;53.046;18.604;2023-06-24T05:40:42;102082.02;;;20.40;55.87
58739;BME280;44512;53.046;18.604;2023-06-24T05:51:10;102097.23;;;20.43;55.73
58739;BME280;44512;53.046;18.604;2023-06-24T06:01:38;102093.99;;;20.46;55.45
58739;BME280;44512;53.046;18.604;2023-06-24T06:12:08;102091.91;;;20.48;55.46
58739;BME280;44512;53.046;18.604;2023-06-24T06:22:35;102084.00;;;20.51;55.17
58739;BME280;44512;53.046;18.604;2023-06-24T06:33:04;102094.94;;;20.58;54.95
58739;BME280;44512;53.046;18.604;2023-06-24T06:43:33;102081.31;;;20.63;54.58
58739;BME280;44512;53.046;18.604;2023-06-24T06:54:00;102084.34;;;20.73;54.38
58739;BME280;44512;53.046;18.604;2023-06-24T07:04:29;102085.90;;;20.81;54.11
58739;BME280;44512;53.046;18.604;2023-06-24T07:14:57;102083.64;;;20.90;54.00
58739;BME280;44512;53.046;18.604;2023-06-24T07:25:25;102101.50;;;20.99;53.89
58739;BME280;44512;53.046;18.604;2023-06-24T07:35:54;102080.79;;;21.08;53.40
58739;BME280;44512;53.046;18.604;2023-06-24T07:46:22;102091.92;;;21.13;52.08
58739;BME280;44512;53.046;18.604;2023-06-24T07:56:50;102102.02;;;21.19;51.93
58739;BME280;44512;53.046;18.604;2023-06-24T08:07:19;102110.40;;;21.24;51.40
58739;BME280;44512;53.046;18.604;2023-06-24T08:17:51;102116.64;;;21.31;49.91
58739;BME280;44512;53.046;18.604;2023-06-24T08:28:15;102094.99;;;21.35;49.55
58739;BME280;44512;53.046;18.604;2023-06-24T08:38:44;102124.78;;;21.50;49.94
58739;BME280;44512;53.046;18.604;2023-06-24T08:59:41;102115.57;;;21.68;51.04
58739;BME280;44512;53.046;18.604;2023-06-24T09:10:09;102123.45;;;21.76;50.32
58739;BME280;44512;53.046;18.604;2023-06-24T09:20:42;102120.48;;;21.77;49.09
58739;BME280;44512;53.046;18.604;2023-06-24T09:31:09;102119.13;;;21.80;48.31
58739;BME280;44512;53.046;18.604;2023-06-24T09:41:34;102109.06;;;21.85;48.49
58739;BME280;44512;53.046;18.604;2023-06-24T09:52:04;102115.30;;;21.93;47.09
58739;BME280;44512;53.046;18.604;2023-06-24T10:02:32;102106.63;;;22.01;47.98
58739;BME280;44512;53.046;18.604;2023-06-24T10:12:59;102115.16;;;22.11;47.63
58739;BME280;44512;53.046;18.604;2023-06-24T10:23:33;102114.53;;;22.21;46.50
58739;BME280;44512;53.046;18.604;2023-06-24T10:33:58;102125.41;;;22.27;43.79
58739;BME280;44512;53.046;18.604;2023-06-24T10:44:24;102123.95;;;22.36;44.24
58739;BME280;44512;53.046;18.604;2023-06-24T10:54:53;102111.45;;;22.46;44.23
58739;BME280;44512;53.046;18.604;2023-06-24T11:05:20;102114.66;;;22.54;43.41
58739;BME280;44512;53.046;18.604;2023-06-24T11:15:49;102106.32;;;22.66;43.42
58739;BME280;44512;53.046;18.604;2023-06-24T11:26:17;102109.00;;;22.78;44.26
58739;BME280;44512;53.046;18.604;2023-06-24T11:36:45;102106.20;;;22.90;44.47
58739;BME280;44512;53.046;18.604;2023-06-24T11:47:14;102085.98;;;23.01;45.15
58739;BME280;44512;53.046;18.604;2023-06-24T12:08:11;102081.94;;;23.25;43.39
58739;BME280;44512;53.046;18.604;2023-06-24T12:18:39;102080.77;;;23.38;42.56
58739;BME280;44512;53.046;18.604;2023-06-24T12:29:07;102083.49;;;23.55;42.79
58739;BME280;44512;53.046;18.604;2023-06-24T12:39:35;102072.69;;;23.70;42.55
58739;BME280;44512;53.046;18.604;2023-06-24T12:50:05;102059.40;;;23.89;41.87
58739;BME280;44512;53.046;18.604;2023-06-24T13:00:32;102067.95;;;24.09;42.01
58739;BME280;44512;53.046;18.604;2023-06-24T13:11:00;102062.38;;;24.31;41.63
58739;BME280;44512;53.046;18.604;2023-06-24T13:21:29;102056.43;;;24.45;41.27
58739;BME280;44512;53.046;18.604;2023-06-24T13:31:57;102068.21;;;24.57;41.46
58739;BME280;44512;53.046;18.604;2023-06-24T13:42:25;102052.25;;;24.69;41.36
58739;BME280;44512;53.046;18.604;2023-06-24T13:52:54;102057.70;;;24.91;41.36
58739;BME280;44512;53.046;18.604;2023-06-24T14:03:22;102039.88;;;25.09;41.00
58739;BME280;44512;53.046;18.604;2023-06-24T14:13:50;102045.26;;;25.26;40.59
58739;BME280;44512;53.046;18.604;2023-06-24T14:24:19;102051.75;;;25.46;40.07
58739;BME280;44512;53.046;18.604;2023-06-24T14:34:47;102039.64;;;25.63;39.80
58739;BME280;44512;53.046;18.604;2023-06-24T14:50:33;102033.43;;;25.93;38.92
58739;BME280;44512;53.046;18.604;2023-06-24T15:01:02;102030.45;;;26.25;38.78
58739;BME280;44512;53.046;18.604;2023-06-24T15:11:30;102010.27;;;26.60;38.78
58739;BME280;44512;53.046;18.604;2023-06-24T15:21:58;102011.37;;;27.05;37.74
58739;BME280;44512;53.046;18.604;2023-06-24T15:32:27;101996.63;;;27.30;37.10
58739;BME280;44512;53.046;18.604;2023-06-24T15:42:55;102023.55;;;27.45;36.52
58739;BME280;44512;53.046;18.604;2023-06-24T15:53:23;102000.74;;;27.43;36.36
58739;BME280;44512;53.046;18.604;2023-06-24T16:03:52;102007.72;;;27.40;36.79
58739;BME280;44512;53.046;18.604;2023-06-24T16:14:20;102004.56;;;27.62;36.57
58739;BME280;44512;53.046;18.604;2023-06-24T16:24:49;102012.03;;;27.82;36.23
58739;BME280;44512;53.046;18.604;2023-06-24T16:35:17;102012.55;;;27.84;36.17
58739;BME280;44512;53.046;18.604;2023-06-24T16:45:45;102016.20;;;27.80;35.67
58739;BME280;44512;53.046;18.604;2023-06-24T16:56:13;102014.27;;;27.65;35.83
58739;BME280;44512;53.046;18.604;2023-06-24T17:06:42;102015.45;;;27.48;36.06
58739;BME280;44512;53.046;18.604;2023-06-24T17:17:10;102003.84;;;27.31;36.35
58739;BME280;44512;53.046;18.604;2023-06-24T17:27:38;102008.88;;;27.19;36.56
58739;BME280;44512;53.046;18.604;2023-06-24T17:38:07;102006.64;;;27.06;36.46
58739;BME280;44512;53.046;18.604;2023-06-24T17:48:35;102019.15;;;26.93;36.62
58739;BME280;44512;53.046;18.604;2023-06-24T17:59:03;102014.45;;;26.83;36.58
58739;BME280;44512;53.046;18.604;2023-06-24T18:09:31;102003.89;;;26.75;36.75
58739;BME280;44512;53.046;18.604;2023-06-24T18:20:00;102013.88;;;26.66;36.89
58739;BME280;44512;53.046;18.604;2023-06-24T18:30:28;102013.88;;;26.56;37.29
58739;BME280;44512;53.046;18.604;2023-06-24T18:40:56;102022.77;;;26.47;37.79
58739;BME280;44512;53.046;18.604;2023-06-24T18:51:25;102012.74;;;26.41;38.11
58739;BME280;44512;53.046;18.604;2023-06-24T19:01:53;102033.24;;;26.30;38.41
58739;BME280;44512;53.046;18.604;2023-06-24T19:12:21;102040.46;;;26.21;38.79
58739;BME280;44512;53.046;18.604;2023-06-24T19:22:50;102050.14;;;26.13;39.05
58739;BME280;44512;53.046;18.604;2023-06-24T19:33:18;102052.60;;;26.05;39.33
58739;BME280;44512;53.046;18.604;2023-06-24T19:43:47;102054.26;;;25.95;39.53
58739;BME280;44512;53.046;18.604;2023-06-24T19:54:15;102066.39;;;25.84;39.70
58739;BME280;44512;53.046;18.604;2023-06-24T20:04:45;102079.07;;;25.70;39.70
58739;BME280;44512;53.046;18.604;2023-06-24T20:15:12;102077.84;;;25.51;39.37
58739;BME280;44512;53.046;18.604;2023-06-24T20:25:40;102082.41;;;25.30;39.11
58739;BME280;44512;53.046;18.604;2023-06-24T20:36:08;102086.42;;;25.12;38.53
58739;BME280;44512;53.046;18.604;2023-06-24T20:46:36;102086.81;;;24.93;38.05
58739;BME280;44512;53.046;18.604;2023-06-24T20:57:05;102083.95;;;24.83;37.88
58739;BME280;44512;53.046;18.604;2023-06-24T21:07:33;102081.36;;;25.04;37.67
58739;BME280;44512;53.046;18.604;2023-06-24T21:18:02;102087.68;;;25.31;37.09
58739;BME280;44512;53.046;18.604;2023-06-24T21:28:30;102087.23;;;25.44;36.62
58739;BME280;44512;53.046;18.604;2023-06-24T21:38:58;102114.40;;;25.48;36.09
58739;BME280;44512;53.046;18.604;2023-06-24T21:49:26;102124.13;;;25.50;36.66
58739;BME280;44512;53.046;18.604;2023-06-24T21:59:55;102117.20;;;25.53;36.83
58739;BME280;44512;53.046;18.604;2023-06-24T22:10:24;102124.41;;;25.49;36.67
58739;BME280;44512;53.046;18.604;2023-06-24T22:20:51;102128.22;;;25.42;36.25
58739;BME280;44512;53.046;18.604;2023-06-24T22:31:20;102127.11;;;25.38;35.85
58739;BME280;44512;53.046;18.604;2023-06-24T22:41:49;102134.24;;;25.29;35.77
58739;BME280;44512;53.046;18.604;2023-06-24T22:52:17;102145.24;;;25.19;35.51
58739;BME280;44512;53.046;18.604;2023-06-24T23:02:45;102138.23;;;25.11;35.36
58739;BME280;44512;53.046;18.604;2023-06-24T23:13:13;102143.66;;;25.01;35.29
58739;BME280;44512;53.046;18.604;2023-06-24T23:23:42;102157.16;;;24.92;35.16
58739;BME280;44512;53.046;18.604;2023-06-24T23:34:10;102138.23;;;24.84;35.24
58739;BME280;44512;53.046;18.604;2023-06-24T23:44:39;102137.86;;;24.76;35.53
58739;BME280;44512;53.046;18.604;2023-06-24T23:55:07;102133.08;;;24.66;35.92
